Time;durP1;ratioP1;P1;durP2;ratioP2;P2;SDS_P1;SDS_P2;PMS_P1;PMS_P2;Temp;Humidity;BMP_temperature;BMP_pressure;BME280_temperature;BME280_humidity;BME280_pressure;Samples;Min_cycle;Max_cycle;Signal;HPM_P1;HPM_P2
2023/09/05 00:00:19;;;;;;;9.13;3.92;;;;;;;;;;4997049;28;19913;-60
2023/09/05 00:02:48;;;;;;;5.28;3.10;;;;;;;;;;5002338;28;20042;-60
2023/09/05 00:05:15;;;;;;;8.13;4.30;;;;;;;;;;4994260;28;20033;-60
2023/09/05 00:07:41;;;;;;;9.45;3.90;;;;;;;;;;4999177;28;20046;-61
2023/09/05 00:10:13;;;;;;;7.18;3.47;;;;;;;;;;4993365;28;20513;-60
2023/09/05 00:12:43;;;;;;;6.53;3.65;;;;;;;;;;5001052;28;20038;-59
2023/09/05 00:15:11;;;;;;;8.00;3.63;;;;;;;;;;5001475;28;20033;-60
2023/09/05 00:17:38;;;;;;;7.53;3.65;;;;;;;;;;4984243;28;20030;-59
2023/09/05 00:20:05;;;;;;;6.88;3.70;;;;;;;;;;4966734;28;20034;-60
2023/09/05 00:22:31;;;;;;;5.57;3.22;;;;;;;;;;4983586;28;20057;-60
2023/09/05 00:24:57;;;;;;;6.10;3.42;;;;;;;;;;4999431;28;20050;-60
2023/09/05 00:27:23;;;;;;;7.53;3.75;;;;;;;;;;4997635;28;20045;-60
2023/09/05 00:29:49;;;;;;;33.55;4.00;;;;;;;;;;4998643;28;20054;-59
2023/09/05 00:32:18;;;;;;;7.55;3.53;;;;;;;;;;5001931;28;20042;-59
2023/09/05 00:34:47;;;;;;;5.85;3.28;;;;;;;;;;4989025;28;20029;-61
2023/09/05 00:37:21;;;;;;;6.32;3.42;;;;;;;;;;4999574;28;20043;-60
2023/09/05 00:39:48;;;;;;;6.82;3.40;;;;;;;;;;5005793;28;20412;-61
2023/09/05 00:42:15;;;;;;;8.10;3.80;;;;;;;;;;5004148;28;20048;-60
2023/09/05 00:44:42;;;;;;;6.38;3.70;;;;;;;;;;4987881;28;20489;-60
2023/09/05 00:47:13;;;;;;;6.25;3.50;;;;;;;;;;4997424;28;20418;-61
2023/09/05 00:49:46;;;;;;;6.35;3.33;;;;;;;;;;5004479;28;20053;-60
2023/09/05 00:52:14;;;;;;;7.50;3.72;;;;;;;;;;4999315;28;20033;-60
2023/09/05 00:54:42;;;;;;;6.53;3.33;;;;;;;;;;4981798;28;20037;-60
2023/09/05 00:57:17;;;;;;;5.72;3.33;;;;;;;;;;5000407;28;20038;-60
2023/09/05 00:59:43;;;;;;;5.28;3.60;;;;;;;;;;5002860;28;20026;-60
2023/09/05 01:06:08;;;;;;;6.85;3.13;;;;;;;;;;4988199;28;20038;-76
2023/09/05 01:08:45;;;;;;;7.85;3.33;;;;;;;;;;4962457;28;20622;-76
2023/09/05 01:11:14;;;;;;;7.50;3.08;;;;;;;;;;4953820;28;20122;-76
2023/09/05 01:13:41;;;;;;;6.15;3.10;;;;;;;;;;4973173;28;20042;-76
2023/09/05 01:16:08;;;;;;;7.10;3.15;;;;;;;;;;4958447;28;20050;-76
2023/09/05 01:18:39;;;;;;;6.70;3.08;;;;;;;;;;4942040;28;20528;-76
2023/09/05 01:21:19;;;;;;;5.75;3.33;;;;;;;;;;4942757;28;20083;-76
2023/09/05 01:24:16;;;;;;;6.93;3.13;;;;;;;;;;4972139;28;20389;-76
2023/09/05 01:26:43;;;;;;;6.25;3.08;;;;;;;;;;4956442;28;20077;-76
2023/09/05 01:29:11;;;;;;;5.90;3.30;;;;;;;;;;4953402;28;20035;-76
2023/09/05 01:31:38;;;;;;;6.10;3.30;;;;;;;;;;4957329;28;20049;-76
2023/09/05 01:34:10;;;;;;;5.57;2.75;;;;;;;;;;4924482;28;20035;-76
2023/09/05 01:36:36;;;;;;;7.10;3.33;;;;;;;;;;4938446;28;20045;-75
2023/09/05 01:39:02;;;;;;;7.20;3.20;;;;;;;;;;4941148;28;20035;-75
2023/09/05 01:41:29;;;;;;;7.40;3.00;;;;;;;;;;4941235;28;20046;-76
2023/09/05 01:43:55;;;;;;;5.93;3.42;;;;;;;;;;4955479;28;20035;-76
2023/09/05 01:46:24;;;;;;;6.60;3.10;;;;;;;;;;4957241;28;20038;-76
2023/09/05 01:48:50;;;;;;;7.10;3.33;;;;;;;;;;4955308;28;20038;-76
2023/09/05 01:51:16;;;;;;;6.88;3.50;;;;;;;;;;4939392;28;20489;-76
2023/09/05 01:53:43;;;;;;;5.47;3.28;;;;;;;;;;4954059;28;20035;-76
2023/09/05 01:56:11;;;;;;;3.75;2.70;;;;;;;;;;4940115;28;20042;-76
2023/09/05 01:58:37;;;;;;;7.57;2.95;;;;;;;;;;4952219;28;20060;-76
2023/09/05 02:01:06;;;;;;;4.97;2.95;;;;;;;;;;4957387;28;20046;-75
2023/09/05 02:03:35;;;;;;;5.35;2.88;;;;;;;;;;4935980;28;20035;-75
2023/09/05 02:06:04;;;;;;;5.85;3.33;;;;;;;;;;4937069;28;20546;-76
2023/09/05 02:08:30;;;;;;;5.37;2.97;;;;;;;;;;4953389;28;20034;-75
2023/09/05 02:11:00;;;;;;;7.53;3.42;;;;;;;;;;4937113;28;20034;-76
2023/09/05 02:13:28;;;;;;;4.70;3.03;;;;;;;;;;4939769;28;20038;-75
2023/09/05 02:15:57;;;;;;;4.20;2.78;;;;;;;;;;4957085;28;20049;-76
2023/09/05 02:18:23;;;;;;;6.57;3.10;;;;;;;;;;4953076;28;20042;-76
2023/09/05 02:20:50;;;;;;;5.15;3.10;;;;;;;;;;4922335;28;20035;-76
2023/09/05 02:23:16;;;;;;;6.95;3.22;;;;;;;;;;4936711;28;20043;-76
2023/09/05 02:25:43;;;;;;;4.30;3.20;;;;;;;;;;4938973;28;20053;-76
2023/09/05 02:28:14;;;;;;;5.47;3.42;;;;;;;;;;4937876;28;20520;-76
2023/09/05 02:30:43;;;;;;;7.20;3.13;;;;;;;;;;4942455;28;20042;-76
2023/09/05 02:33:11;;;;;;;5.65;3.00;;;;;;;;;;4955949;28;20282;-75
2023/09/05 02:35:37;;;;;;;4.43;3.43;;;;;;;;;;4953888;28;20047;-76
2023/09/05 02:38:06;;;;;;;5.93;3.08;;;;;;;;;;4955130;28;20046;-75
2023/09/05 02:40:33;;;;;;;5.60;2.90;;;;;;;;;;4940587;28;20057;-75
2023/09/05 02:43:02;;;;;;;5.37;3.20;;;;;;;;;;4954269;28;20446;-75
2023/09/05 02:45:30;;;;;;;5.15;2.80;;;;;;;;;;4941794;28;20516;-76
2023/09/05 02:47:56;;;;;;;5.60;3.00;;;;;;;;;;4955301;28;20042;-76
2023/09/05 02:50:25;;;;;;;4.43;2.83;;;;;;;;;;4937336;28;20031;-76
2023/09/05 02:52:53;;;;;;;6.78;2.90;;;;;;;;;;4941780;28;20046;-75
2023/09/05 02:55:23;;;;;;;6.75;3.22;;;;;;;;;;4952629;28;20462;-75
2023/09/05 02:57:49;;;;;;;4.82;3.15;;;;;;;;;;4936088;28;20035;-75
2023/09/05 03:00:19;;;;;;;5.00;3.20;;;;;;;;;;4941514;28;20046;-76
2023/09/05 03:02:49;;;;;;;6.47;3.25;;;;;;;;;;4935120;28;20039;-75
2023/09/05 03:05:16;;;;;;;6.15;3.40;;;;;;;;;;4936541;28;20418;-75
2023/09/05 03:07:47;;;;;;;7.18;3.40;;;;;;;;;;4953369;28;20042;-75
2023/09/05 03:10:15;;;;;;;4.43;3.03;;;;;;;;;;4953053;28;20039;-75
2023/09/05 03:12:46;;;;;;;5.82;2.92;;;;;;;;;;4953518;28;20418;-75
2023/09/05 03:15:18;;;;;;;4.97;3.03;;;;;;;;;;4955876;28;20050;-75
2023/09/05 03:17:45;;;;;;;5.03;3.22;;;;;;;;;;4923000;28;20042;-74
2023/09/05 03:20:15;;;;;;;4.95;2.78;;;;;;;;;;4938055;28;20045;-76
2023/09/05 03:22:42;;;;;;;5.60;3.78;;;;;;;;;;4936542;28;20039;-77
2023/09/05 03:25:08;;;;;;;5.97;3.38;;;;;;;;;;4966725;28;20402;-75
2023/09/05 03:27:34;;;;;;;16.13;3.55;;;;;;;;;;4973040;28;20038;-77
2023/09/05 03:30:03;;;;;;;5.15;3.25;;;;;;;;;;4938276;28;20038;-76
2023/09/05 03:32:31;;;;;;;6.53;3.15;;;;;;;;;;4953493;28;20374;-76
2023/09/05 03:35:05;;;;;;;6.32;3.38;;;;;;;;;;4938144;28;20031;-76
2023/09/05 03:37:31;;;;;;;5.88;3.25;;;;;;;;;;4972099;28;20030;-76
2023/09/05 03:39:57;;;;;;;4.60;3.03;;;;;;;;;;4972059;28;20042;-76
2023/09/05 03:42:26;;;;;;;8.32;3.58;;;;;;;;;;4955693;28;20030;-76
2023/09/05 03:44:52;;;;;;;6.28;3.25;;;;;;;;;;4948697;28;20035;-76
2023/09/05 03:47:18;;;;;;;5.53;3.13;;;;;;;;;;4953575;28;20520;-76
2023/09/05 03:49:46;;;;;;;4.13;3.10;;;;;;;;;;4938370;28;20042;-76
2023/09/05 03:52:13;;;;;;;4.53;3.20;;;;;;;;;;4937831;28;20042;-76
2023/09/05 03:54:39;;;;;;;5.70;3.45;;;;;;;;;;4937900;28;20034;-76
2023/09/05 03:57:10;;;;;;;5.23;3.20;;;;;;;;;;4922242;28;20035;-76
2023/09/05 03:59:39;;;;;;;5.72;3.15;;;;;;;;;;4937003;28;20034;-76
2023/09/05 04:02:07;;;;;;;6.93;3.40;;;;;;;;;;4922242;28;20062;-76
2023/09/05 04:04:34;;;;;;;6.05;3.40;;;;;;;;;;4937511;28;20518;-76
2023/09/05 04:07:00;;;;;;;11.00;3.78;;;;;;;;;;4954926;28;20037;-75
2023/09/05 04:09:26;;;;;;;6.85;3.70;;;;;;;;;;4955429;28;20058;-76
2023/09/05 04:11:57;;;;;;;5.63;3.40;;;;;;;;;;4937836;28;20045;-76
2023/09/05 04:14:24;;;;;;;6.78;3.50;;;;;;;;;;4939171;28;20301;-76
2023/09/05 04:16:51;;;;;;;8.77;3.70;;;;;;;;;;4955130;28;20038;-76
2023/09/05 04:19:17;;;;;;;5.28;3.15;;;;;;;;;;4936810;28;20409;-76
2023/09/05 04:21:45;;;;;;;5.90;3.60;;;;;;;;;;4937982;28;20045;-76
2023/09/05 04:24:13;;;;;;;7.85;4.35;;;;;;;;;;4918213;28;20039;-75
2023/09/05 04:26:44;;;;;;;13.75;4.15;;;;;;;;;;4942128;28;20030;-75
2023/09/05 04:29:11;;;;;;;9.80;4.17;;;;;;;;;;4963087;28;20043;-75
2023/09/05 04:31:37;;;;;;;10.13;3.80;;;;;;;;;;4940035;28;20061;-74
2023/09/05 04:34:05;;;;;;;7.25;3.70;;;;;;;;;;4942129;28;20042;-75
2023/09/05 04:36:32;;;;;;;11.73;4.35;;;;;;;;;;4926605;28;20415;-74
2023/09/05 04:39:03;;;;;;;8.98;4.93;;;;;;;;;;4959229;28;20046;-74
2023/09/05 04:41:32;;;;;;;;;;;;;;;;;;4926620;28;20042;-74
2023/09/05 04:43:58;;;;;;;9.52;4.28;;;;;;;;;;4958222;28;20293;-74
2023/09/05 04:46:37;;;;;;;9.35;4.25;;;;;;;;;;4958127;28;20030;-74
2023/09/05 04:49:04;;;;;;;6.40;4.20;;;;;;;;;;4935538;28;20051;-75
2023/09/05 04:51:32;;;;;;;7.72;4.15;;;;;;;;;;4925852;28;20041;-74
2023/09/05 04:53:58;;;;;;;9.63;4.30;;;;;;;;;;4956644;28;20045;-74
2023/09/05 04:56:25;;;;;;;8.27;4.32;;;;;;;;;;4957437;28;20031;-74
2023/09/05 04:58:51;;;;;;;8.27;4.00;;;;;;;;;;4958839;28;20562;-74
2023/09/05 05:01:22;;;;;;;7.80;3.92;;;;;;;;;;4957104;28;20046;-74
2023/09/05 05:03:51;;;;;;;6.37;4.27;;;;;;;;;;4941181;28;20042;-74
2023/09/05 05:06:19;;;;;;;6.13;3.65;;;;;;;;;;4942689;28;20406;-74
2023/09/05 05:08:48;;;;;;;7.33;3.80;;;;;;;;;;4957858;28;20039;-74
2023/09/05 05:11:17;;;;;;;10.00;5.77;;;;;;;;;;4958927;28;20446;-73
2023/09/05 05:13:43;;;;;;;8.73;5.00;;;;;;;;;;4940345;28;20796;-73
2023/09/05 05:16:11;;;;;;;8.80;4.75;;;;;;;;;;4940203;28;20046;-72
2023/09/05 05:18:38;;;;;;;10.80;4.35;;;;;;;;;;4940708;28;20043;-74
2023/09/05 05:21:04;;;;;;;7.55;3.45;;;;;;;;;;4956896;28;20042;-73
2023/09/05 05:23:33;;;;;;;8.40;3.78;;;;;;;;;;4940073;28;20367;-73
2023/09/05 05:26:05;;;;;;;6.00;3.40;;;;;;;;;;4927593;28;20058;-73
2023/09/05 05:28:31;;;;;;;6.65;3.60;;;;;;;;;;4941432;28;20058;-74
2023/09/05 05:30:57;;;;;;;8.65;3.58;;;;;;;;;;4952858;28;20053;-73
2023/09/05 05:33:23;;;;;;;7.75;4.00;;;;;;;;;;4951717;28;20038;-73
2023/09/05 05:35:55;;;;;;;7.03;3.85;;;;;;;;;;4964852;28;20417;-73
2023/09/05 05:38:24;;;;;;;7.93;4.00;;;;;;;;;;4941590;28;20414;-73
2023/09/05 05:40:50;;;;;;;8.00;4.47;;;;;;;;;;4958021;28;20513;-73
2023/09/05 05:43:19;;;;;;;7.97;4.00;;;;;;;;;;4942661;28;20414;-74
2023/09/05 05:45:51;;;;;;;7.83;3.57;;;;;;;;;;4956444;28;20414;-73
2023/09/05 05:48:17;;;;;;;8.02;3.85;;;;;;;;;;4939365;28;20038;-73
2023/09/05 05:50:46;;;;;;;6.70;3.10;;;;;;;;;;4955705;28;20486;-74
2023/09/05 05:53:20;;;;;;;7.80;3.40;;;;;;;;;;4957240;28;20038;-74
2023/09/05 05:55:49;;;;;;;7.35;3.72;;;;;;;;;;4940802;28;20035;-74
2023/09/05 05:58:15;;;;;;;7.75;3.97;;;;;;;;;;4938193;28;20039;-74
2023/09/05 06:00:50;;;;;;;6.05;3.75;;;;;;;;;;4939023;28;20035;-75
2023/09/05 06:03:21;;;;;;;9.63;3.97;;;;;;;;;;4939767;28;20047;-74
2023/09/05 06:05:50;;;;;;;6.20;3.72;;;;;;;;;;4972445;28;20039;-75
2023/09/05 06:08:21;;;;;;;7.72;3.67;;;;;;;;;;4945017;28;20034;-74
2023/09/05 06:10:48;;;;;;;7.80;3.45;;;;;;;;;;4953898;28;20493;-74
2023/09/05 06:13:15;;;;;;;9.35;3.72;;;;;;;;;;4955909;28;20042;-74
2023/09/05 06:15:41;;;;;;;5.05;3.10;;;;;;;;;;4971697;28;20027;-74
2023/09/05 06:18:11;;;;;;;8.45;3.88;;;;;;;;;;4943185;28;20061;-74
2023/09/05 06:20:37;;;;;;;6.28;3.55;;;;;;;;;;4940086;28;20059;-74
2023/09/05 06:23:09;;;;;;;6.82;3.65;;;;;;;;;;4955289;28;20065;-74
2023/09/05 06:25:35;;;;;;;8.43;3.63;;;;;;;;;;4942356;28;20038;-74
2023/09/05 06:28:02;;;;;;;7.47;3.63;;;;;;;;;;4958457;28;20033;-74
2023/09/05 06:30:28;;;;;;;6.63;3.90;;;;;;;;;;4971921;28;20046;-74
2023/09/05 06:32:54;;;;;;;6.32;3.65;;;;;;;;;;4954802;28;20034;-74
2023/09/05 06:35:20;;;;;;;6.90;3.90;;;;;;;;;;4956405;28;20375;-74
2023/09/05 06:37:51;;;;;;;8.95;3.30;;;;;;;;;;4957383;28;20398;-74
2023/09/05 06:40:18;;;;;;;6.70;3.67;;;;;;;;;;4941463;28;20391;-74
2023/09/05 06:42:46;;;;;;;8.73;4.30;;;;;;;;;;4959053;28;20042;-74
2023/09/05 06:45:13;;;;;;;7.13;3.50;;;;;;;;;;4971721;28;20035;-74
2023/09/05 06:47:39;;;;;;;6.82;3.78;;;;;;;;;;4937972;28;20041;-74
2023/09/05 06:50:05;;;;;;;9.73;3.65;;;;;;;;;;4938776;28;20049;-74
2023/09/05 06:52:32;;;;;;;7.30;3.30;;;;;;;;;;4972289;28;20038;-75
2023/09/05 06:54:58;;;;;;;5.97;3.70;;;;;;;;;;4957350;28;20049;-73
2023/09/05 06:57:26;;;;;;;6.63;3.50;;;;;;;;;;4955648;28;20035;-74
2023/09/05 06:59:55;;;;;;;6.40;4.38;;;;;;;;;;4937541;28;20031;-75
2023/09/05 07:02:21;;;;;;;10.00;3.67;;;;;;;;;;4955579;28;20034;-75
2023/09/05 07:04:47;;;;;;;6.32;3.83;;;;;;;;;;4953868;28;20050;-75
2023/09/05 07:07:20;;;;;;;11.90;3.60;;;;;;;;;;4955006;28;20043;-75
2023/09/05 07:09:46;;;;;;;8.85;3.65;;;;;;;;;;4971872;28;20035;-73
2023/09/05 07:12:12;;;;;;;8.25;3.92;;;;;;;;;;4959105;28;20081;-74
2023/09/05 07:14:38;;;;;;;6.82;3.40;;;;;;;;;;4939481;28;20045;-75
2023/09/05 07:17:07;;;;;;;6.18;3.63;;;;;;;;;;4937954;28;20052;-74
2023/09/05 07:19:33;;;;;;;7.47;4.00;;;;;;;;;;4937359;28;20042;-74
2023/09/05 07:21:59;;;;;;;9.40;3.90;;;;;;;;;;4972277;28;20046;-74
2023/09/05 07:24:28;;;;;;;7.27;4.00;;;;;;;;;;4945601;28;20042;-74
2023/09/05 07:26:56;;;;;;;9.35;3.85;;;;;;;;;;4939718;28;20034;-74
2023/09/05 07:29:27;;;;;;;7.82;4.72;;;;;;;;;;4958263;28;20035;-74
2023/09/05 07:31:53;;;;;;;11.57;4.82;;;;;;;;;;4954921;28;20062;-74
2023/09/05 07:34:19;;;;;;;8.00;3.78;;;;;;;;;;4969997;28;20498;-74
2023/09/05 07:36:46;;;;;;;7.28;4.03;;;;;;;;;;4955811;28;20502;-75
2023/09/05 07:39:16;;;;;;;7.22;3.70;;;;;;;;;;4941528;28;20103;-74
2023/09/05 07:41:42;;;;;;;6.40;3.80;;;;;;;;;;4953889;28;20035;-74
2023/09/05 07:44:09;;;;;;;8.23;4.07;;;;;;;;;;4968045;28;20034;-74
2023/09/05 07:46:35;;;;;;;7.88;4.28;;;;;;;;;;4972483;28;20039;-74
2023/09/05 07:49:05;;;;;;;7.10;3.83;;;;;;;;;;4938426;28;20490;-72
2023/09/05 07:51:31;;;;;;;7.28;3.80;;;;;;;;;;4957539;28;20387;-74
2023/09/05 07:54:10;;;;;;;7.22;4.20;;;;;;;;;;4954898;28;20049;-74
2023/09/05 07:56:39;;;;;;;10.60;4.10;;;;;;;;;;4937687;28;20043;-74
2023/09/05 07:59:07;;;;;;;7.57;4.18;;;;;;;;;;4926084;28;20041;-74
2023/09/05 08:01:37;;;;;;;10.30;4.00;;;;;;;;;;4959106;28;20042;-74
2023/09/05 08:04:04;;;;;;;6.82;4.18;;;;;;;;;;4957669;28;20039;-74
2023/09/05 08:06:30;;;;;;;7.57;5.07;;;;;;;;;;4956523;28;20045;-73
2023/09/05 08:08:59;;;;;;;6.90;3.45;;;;;;;;;;4957124;28;20045;-74
2023/09/05 08:11:25;;;;;;;8.45;3.88;;;;;;;;;;4960272;28;20034;-74
2023/09/05 08:13:51;;;;;;;5.07;3.60;;;;;;;;;;4955999;28;20513;-74
2023/09/05 08:16:20;;;;;;;7.38;3.75;;;;;;;;;;4944482;28;20046;-74
2023/09/05 08:18:48;;;;;;;7.70;3.87;;;;;;;;;;4956388;28;20508;-74
2023/09/05 08:21:18;;;;;;;8.53;3.80;;;;;;;;;;4955580;28;20041;-73
2023/09/05 08:23:44;;;;;;;;;;;;;;;;;;4938446;28;20426;-73
2023/09/05 08:26:11;;;;;;;8.27;4.15;;;;;;;;;;4938926;28;20293;-73
2023/09/05 08:28:42;;;;;;;9.10;3.97;;;;;;;;;;4957643;28;20393;-73
2023/09/05 08:31:11;;;;;;;5.93;3.60;;;;;;;;;;4976820;28;20383;-72
2023/09/05 08:33:38;;;;;;;4.97;3.40;;;;;;;;;;4963019;28;20042;-73
2023/09/05 08:36:08;;;;;;;7.05;3.42;;;;;;;;;;4944301;28;20053;-74
2023/09/05 08:38:37;;;;;;;5.80;3.45;;;;;;;;;;4975675;28;20512;-74
2023/09/05 08:41:06;;;;;;;6.13;3.38;;;;;;;;;;4959141;28;20039;-73
2023/09/05 08:43:34;;;;;;;7.15;3.80;;;;;;;;;;4956648;28;20048;-74
2023/09/05 08:46:01;;;;;;;5.10;3.63;;;;;;;;;;4959485;28;20030;-74
2023/09/05 08:48:29;;;;;;;7.63;3.72;;;;;;;;;;4973812;28;20509;-74
2023/09/05 08:50:56;;;;;;;7.72;3.70;;;;;;;;;;4974613;28;20397;-74
2023/09/05 08:53:31;;;;;;;6.47;3.72;;;;;;;;;;4957442;28;20039;-74
2023/09/05 08:55:58;;;;;;;7.75;3.78;;;;;;;;;;4964768;28;20030;-73
2023/09/05 08:58:25;;;;;;;6.32;3.92;;;;;;;;;;4956017;28;20027;-75
2023/09/05 09:00:51;;;;;;;6.32;3.58;;;;;;;;;;4957687;28;20065;-75
2023/09/05 09:03:17;;;;;;;7.00;4.10;;;;;;;;;;4939511;28;20046;-75
2023/09/05 09:05:47;;;;;;;8.63;3.58;;;;;;;;;;4946512;28;20034;-74
2023/09/05 09:08:13;;;;;;;7.50;3.67;;;;;;;;;;4957275;28;20030;-75
2023/09/05 09:10:42;;;;;;;6.30;3.10;;;;;;;;;;4974432;28;20034;-74
2023/09/05 09:13:18;;;;;;;7.45;3.55;;;;;;;;;;4956253;28;20039;-74
2023/09/05 09:15:47;;;;;;;6.00;3.42;;;;;;;;;;4975521;28;20618;-74
2023/09/05 09:18:20;;;;;;;6.40;3.15;;;;;;;;;;4945639;28;20043;-74
2023/09/05 09:20:49;;;;;;;6.43;3.50;;;;;;;;;;4974479;28;20042;-75
2023/09/05 09:23:29;;;;;;;8.45;3.30;;;;;;;;;;4952993;28;20034;-74
2023/09/05 09:25:57;;;;;;;6.72;3.33;;;;;;;;;;4972975;28;20039;-74
2023/09/05 09:28:29;;;;;;;6.57;3.40;;;;;;;;;;4944526;28;20043;-74
2023/09/05 09:30:57;;;;;;;6.28;3.20;;;;;;;;;;4972516;28;20061;-74
2023/09/05 09:33:26;;;;;;;6.30;3.30;;;;;;;;;;4940346;28;20418;-74
2023/09/05 09:36:00;;;;;;;5.50;2.90;;;;;;;;;;4957193;28;20037;-73
2023/09/05 09:38:31;;;;;;;4.80;3.13;;;;;;;;;;4954165;28;20042;-74
2023/09/05 09:41:02;;;;;;;4.53;3.33;;;;;;;;;;4958052;28;20035;-74
2023/09/05 09:43:30;;;;;;;5.40;3.25;;;;;;;;;;4955150;28;20042;-72
2023/09/05 09:46:00;;;;;;;5.93;3.50;;;;;;;;;;4956463;28;20046;-74
2023/09/05 09:48:30;;;;;;;5.28;3.20;;;;;;;;;;4943182;28;20035;-75
2023/09/05 09:50:58;;;;;;;6.38;3.00;;;;;;;;;;4956707;28;20046;-73
2023/09/05 09:53:35;;;;;;;6.50;3.38;;;;;;;;;;4954101;28;20037;-73
2023/09/05 09:56:12;;;;;;;6.10;3.20;;;;;;;;;;4937738;28;20502;-75
2023/09/05 09:58:44;;;;;;;5.70;3.30;;;;;;;;;;4937906;28;20042;-74
2023/09/05 10:01:12;;;;;;;7.30;3.63;;;;;;;;;;4971846;28;20050;-74
2023/09/05 10:03:40;;;;;;;7.07;3.55;;;;;;;;;;4955511;28;20041;-74
2023/09/05 10:06:08;;;;;;;5.30;3.50;;;;;;;;;;4956195;28;20488;-74
2023/09/05 10:08:35;;;;;;;4.72;3.50;;;;;;;;;;4959396;28;20038;-74
2023/09/05 10:11:02;;;;;;;7.88;3.20;;;;;;;;;;4957286;28;20042;-74
2023/09/05 10:13:32;;;;;;;4.53;3.30;;;;;;;;;;4945285;28;20513;-74
2023/09/05 10:16:02;;;;;;;6.45;3.25;;;;;;;;;;4956766;28;20043;-74
2023/09/05 10:18:32;;;;;;;5.32;3.20;;;;;;;;;;4957233;28;20031;-74
2023/09/05 10:21:00;;;;;;;6.47;3.15;;;;;;;;;;4938740;28;20046;-74
2023/09/05 10:23:31;;;;;;;4.22;3.20;;;;;;;;;;4958399;28;20039;-74
2023/09/05 10:26:03;;;;;;;7.82;3.38;;;;;;;;;;4939658;28;20063;-74
2023/09/05 10:28:32;;;;;;;4.30;2.80;;;;;;;;;;4941684;28;20026;-73
2023/09/05 10:31:12;;;;;;;5.05;2.80;;;;;;;;;;4960714;28;20034;-73
2023/09/05 10:33:41;;;;;;;5.22;2.88;;;;;;;;;;4947034;28;20031;-73
2023/09/05 10:36:46;;;;;;;4.40;2.90;;;;;;;;;;4973728;28;20490;-74
2023/09/05 10:39:24;;;;;;;6.43;3.05;;;;;;;;;;4972267;28;20058;-74
2023/09/05 10:41:51;;;;;;;7.90;3.15;;;;;;;;;;4955635;28;20031;-74
2023/09/05 10:44:17;;;;;;;5.20;3.10;;;;;;;;;;4921952;28;20043;-74
2023/09/05 10:46:43;;;;;;;7.05;3.40;;;;;;;;;;4971782;28;20406;-74
2023/09/05 10:49:12;;;;;;;4.32;2.95;;;;;;;;;;4974667;28;20481;-75
2023/09/05 10:52:17;;;;;;;6.35;3.17;;;;;;;;;;4958147;28;20038;-74
2023/09/05 10:54:43;;;;;;;11.55;3.55;;;;;;;;;;4939984;28;20046;-74
2023/09/05 10:57:38;;;;;;;11.05;3.10;;;;;;;;;;4938354;28;20034;-74
2023/09/05 11:00:38;;;;;;;5.68;2.80;;;;;;;;;;4960787;28;20038;-74
2023/09/05 11:03:13;;;;;;;5.72;2.97;;;;;;;;;;4966078;28;20059;-74
2023/09/05 11:05:41;;;;;;;5.72;3.40;;;;;;;;;;4975661;28;20031;-74
2023/09/05 11:08:22;;;;;;;6.70;3.33;;;;;;;;;;4926088;28;20406;-74
2023/09/05 11:10:53;;;;;;;5.82;2.92;;;;;;;;;;4940958;28;20398;-74
2023/09/05 11:13:19;;;;;;;;;;;;;;;;;;4953008;28;20057;-74
2023/09/05 11:15:45;;;;;;;6.63;3.33;;;;;;;;;;4974229;28;19953;-74
2023/09/05 11:18:14;;;;;;;7.20;3.45;;;;;;;;;;4953947;28;20482;-74
2023/09/05 11:20:41;;;;;;;7.70;3.22;;;;;;;;;;4955128;28;20039;-74
2023/09/05 11:23:20;;;;;;;8.40;3.40;;;;;;;;;;4939220;28;20474;-74
2023/09/05 11:25:53;;;;;;;3.92;3.15;;;;;;;;;;4958926;28;20045;-74
2023/09/05 11:28:23;;;;;;;5.88;2.80;;;;;;;;;;4955955;28;20035;-74
2023/09/05 11:31:03;;;;;;;5.25;3.30;;;;;;;;;;4956645;28;20050;-74
2023/09/05 11:33:34;;;;;;;7.03;3.20;;;;;;;;;;4955416;28;20045;-74
2023/09/05 11:36:05;;;;;;;6.63;3.20;;;;;;;;;;4954108;28;20062;-74
2023/09/05 11:38:47;;;;;;;10.10;3.85;;;;;;;;;;4939302;28;20038;-74
2023/09/05 11:41:13;;;;;;;8.45;3.40;;;;;;;;;;4937254;28;20423;-74
2023/09/05 11:43:49;;;;;;;7.93;3.20;;;;;;;;;;4920773;28;20041;-74
2023/09/05 11:46:16;;;;;;;5.72;2.97;;;;;;;;;;4953561;28;20039;-74
2023/09/05 11:48:47;;;;;;;4.47;2.75;;;;;;;;;;4939136;28;20031;-74
2023/09/05 11:51:15;;;;;;;9.27;3.05;;;;;;;;;;4922660;28;20035;-74
2023/09/05 11:53:42;;;;;;;3.35;2.50;;;;;;;;;;4969729;28;20106;-74
2023/09/05 11:56:11;;;;;;;4.93;2.35;;;;;;;;;;4953149;28;20050;-74
2023/09/05 11:58:41;;;;;;;4.53;2.80;;;;;;;;;;4958663;28;20038;-74
2023/09/05 12:01:12;;;;;;;7.78;2.88;;;;;;;;;;4974647;28;20038;-74
2023/09/05 12:03:41;;;;;;;9.73;3.10;;;;;;;;;;4972666;28;20042;-74
2023/09/05 12:06:10;;;;;;;8.38;3.10;;;;;;;;;;4956301;28;20031;-74
2023/09/05 12:08:39;;;;;;;;;;;;;;;;;;4955609;28;20035;-74
2023/09/05 12:11:07;;;;;;;12.30;3.40;;;;;;;;;;4958958;28;19914;-74
2023/09/05 12:13:39;;;;;;;7.88;3.05;;;;;;;;;;4955213;28;20532;-75
2023/09/05 12:16:09;;;;;;;6.03;2.90;;;;;;;;;;4972233;28;22146;-74
2023/09/05 12:18:37;;;;;;;6.80;3.10;;;;;;;;;;4938127;28;20046;-74
2023/09/05 12:21:03;;;;;;;7.18;2.75;;;;;;;;;;4956519;28;20042;-75
2023/09/05 12:23:30;;;;;;;6.07;3.08;;;;;;;;;;4934623;28;20031;-74
2023/09/05 12:26:02;;;;;;;6.05;2.80;;;;;;;;;;4971595;28;20036;-74
2023/09/05 12:28:30;;;;;;;7.30;2.90;;;;;;;;;;4961179;28;20046;-74
2023/09/05 12:31:08;;;;;;;16.73;3.57;;;;;;;;;;4922488;28;20058;-75
2023/09/05 12:33:34;;;;;;;11.00;2.70;;;;;;;;;;4970070;28;20286;-74
2023/09/05 12:36:03;;;;;;;5.00;2.95;;;;;;;;;;4970885;28;20058;-74
2023/09/05 12:38:37;;;;;;;6.07;2.88;;;;;;;;;;4969141;28;20062;-74
2023/09/05 12:41:03;;;;;;;4.22;2.67;;;;;;;;;;4967450;28;20041;-73
2023/09/05 12:43:29;;;;;;;6.72;2.70;;;;;;;;;;4954931;28;20405;-73
2023/09/05 12:45:55;;;;;;;8.20;3.00;;;;;;;;;;4956142;28;20406;-74
2023/09/05 12:48:26;;;;;;;4.68;3.00;;;;;;;;;;4973227;28;20027;-73
2023/09/05 12:50:53;;;;;;;5.38;2.70;;;;;;;;;;4940535;28;20039;-73
2023/09/05 12:53:24;;;;;;;4.47;3.00;;;;;;;;;;4964257;28;20034;-72
2023/09/05 12:55:52;;;;;;;4.25;3.05;;;;;;;;;;4960063;28;20038;-75
2023/09/05 12:58:18;;;;;;;9.15;4.07;;;;;;;;;;4973172;28;20043;-75
2023/09/05 13:00:49;;;;;;;4.75;3.17;;;;;;;;;;4941696;28;20038;-74
2023/09/05 13:03:18;;;;;;;5.53;3.25;;;;;;;;;;4931345;28;20035;-75
2023/09/05 13:05:44;;;;;;;8.57;3.22;;;;;;;;;;4965160;28;20061;-75
2023/09/05 13:08:10;;;;;;;8.50;3.35;;;;;;;;;;4973218;28;20038;-74
2023/09/05 13:10:38;;;;;;;7.65;3.33;;;;;;;;;;4940456;28;20039;-74
2023/09/05 13:13:07;;;;;;;4.43;3.33;;;;;;;;;;4956568;28;20058;-74
2023/09/05 13:15:37;;;;;;;9.20;3.53;;;;;;;;;;4944697;28;20035;-74
2023/09/05 13:18:04;;;;;;;10.05;3.50;;;;;;;;;;4938870;28;20042;-74
2023/09/05 13:20:32;;;;;;;7.60;3.10;;;;;;;;;;4974562;28;20034;-74
2023/09/05 13:23:04;;;;;;;9.48;2.95;;;;;;;;;;4973820;28;20062;-74
2023/09/05 13:25:32;;;;;;;7.55;3.05;;;;;;;;;;4943124;28;20038;-74
2023/09/05 13:28:04;;;;;;;9.93;3.28;;;;;;;;;;4954801;28;20409;-75
2023/09/05 13:30:32;;;;;;;6.30;2.97;;;;;;;;;;4946292;28;20037;-75
2023/09/05 13:32:58;;;;;;;8.55;3.40;;;;;;;;;;4958981;28;20043;-74
2023/09/05 13:35:28;;;;;;;6.63;3.20;;;;;;;;;;4957421;28;20041;-74
2023/09/05 13:37:54;;;;;;;4.95;3.22;;;;;;;;;;4919626;28;20043;-74
2023/09/05 13:40:22;;;;;;;6.82;3.03;;;;;;;;;;4953333;28;20046;-74
2023/09/05 13:42:51;;;;;;;4.93;2.90;;;;;;;;;;4950440;28;20042;-73
2023/09/05 13:45:19;;;;;;;7.93;3.42;;;;;;;;;;4957585;28;20035;-73
2023/09/05 13:47:45;;;;;;;5.07;3.50;;;;;;;;;;4970572;28;20039;-74
2023/09/05 13:50:15;;;;;;;5.93;3.40;;;;;;;;;;4942431;28;20027;-74
2023/09/05 13:52:44;;;;;;;8.07;3.42;;;;;;;;;;4935818;28;20039;-74
2023/09/05 13:55:10;;;;;;;7.65;3.10;;;;;;;;;;4959425;28;20114;-74
2023/09/05 13:57:36;;;;;;;5.65;3.22;;;;;;;;;;4952923;28;20498;-74
2023/09/05 14:00:03;;;;;;;7.53;2.85;;;;;;;;;;4957725;28;20027;-74
2023/09/05 14:02:37;;;;;;;6.40;3.22;;;;;;;;;;4971256;28;20049;-74
2023/09/05 14:05:04;;;;;;;7.68;3.08;;;;;;;;;;4956478;28;20413;-74
2023/09/05 14:07:33;;;;;;;7.93;3.00;;;;;;;;;;4955916;28;20041;-74
2023/09/05 14:10:00;;;;;;;5.28;3.05;;;;;;;;;;4924843;28;20038;-75
2023/09/05 14:12:26;;;;;;;6.53;3.13;;;;;;;;;;4941927;28;20066;-74
2023/09/05 14:14:52;;;;;;;6.15;3.38;;;;;;;;;;4938876;28;20035;-72
2023/09/05 14:17:18;;;;;;;15.07;3.50;;;;;;;;;;4956677;28;20039;-73
2023/09/05 14:19:44;;;;;;;6.78;3.15;;;;;;;;;;4957338;28;20038;-73
2023/09/05 14:22:10;;;;;;;9.30;3.15;;;;;;;;;;4969256;28;20413;-73
2023/09/05 14:24:36;;;;;;;7.15;3.00;;;;;;;;;;4958026;28;20041;-74
2023/09/05 14:27:08;;;;;;;5.70;3.13;;;;;;;;;;4958529;28;20046;-75
2023/09/05 14:29:39;;;;;;;8.10;3.25;;;;;;;;;;4957711;28;20031;-74
2023/09/05 14:32:05;;;;;;;5.40;3.15;;;;;;;;;;4939397;28;20030;-74
2023/09/05 14:34:33;;;;;;;6.82;3.38;;;;;;;;;;4955792;28;20035;-73
2023/09/05 14:37:00;;;;;;;7.38;3.00;;;;;;;;;;4955146;28;20039;-74
2023/09/05 14:39:26;;;;;;;8.13;3.15;;;;;;;;;;4939620;28;20049;-74
2023/09/05 14:41:52;;;;;;;8.25;3.25;;;;;;;;;;4955413;28;20482;-74
2023/09/05 14:44:19;;;;;;;7.32;3.72;;;;;;;;;;4970587;28;20045;-75
2023/09/05 14:46:48;;;;;;;5.82;3.13;;;;;;;;;;4954019;28;20111;-75
2023/09/05 14:49:14;;;;;;;7.72;3.40;;;;;;;;;;4925614;28;20501;-76
2023/09/05 14:51:43;;;;;;;10.55;3.38;;;;;;;;;;4936512;28;20039;-76
2023/09/05 14:54:10;;;;;;;8.95;3.38;;;;;;;;;;4941167;28;20045;-75
2023/09/05 14:56:37;;;;;;;6.10;3.50;;;;;;;;;;4957121;28;20034;-75